Time;durP1;ratioP1;P1;durP2;ratioP2;P2;SDS_P1;SDS_P2;PMS_P1;PMS_P2;Temp;Humidity;BMP_temperature;BMP_pressure;BME280_temperature;BME280_humidity;BME280_pressure;Samples;Min_cycle;Max_cycle;Signal;HPM_P1;HPM_P2
2024/02/10 00:00:22;;;;;;;;;;;;;;;19.97;45.52;98514.84;2064382;28;2324;-63
2024/02/10 00:01:27;;;;;;;;;;;;;;;19.97;45.48;98519.88;2067389;28;2422;-63
2024/02/10 00:02:31;;;;;;;;;;;;;;;19.96;45.40;98513.41;2075459;28;1683;-63
2024/02/10 00:03:33;;;;;;;;;;;;;;;19.97;45.46;98517.00;2069754;28;2359;-63
2024/02/10 00:04:34;;;;;;;;;;;;;;;19.96;45.39;98513.41;2069871;28;1660;-63
2024/02/10 00:05:36;;;;;;;;;;;;;;;19.96;45.43;98507.66;2070250;28;2305;-63
2024/02/10 00:06:39;;;;;;;;;;;;;;;19.96;45.38;98510.53;2069975;28;2344;-63
2024/02/10 00:07:45;;;;;;;;;;;;;;;19.95;45.48;98511.97;2069387;28;2095;-63
2024/02/10 00:08:47;;;;;;;;;;;;;;;19.96;45.43;98512.69;2070069;28;2076;-63
2024/02/10 00:09:48;;;;;;;;;;;;;;;19.95;45.42;98511.97;2065799;28;1776;-63
2024/02/10 00:10:51;;;;;;;;;;;;;;;19.96;45.53;98510.53;2067313;28;2264;-63
2024/02/10 00:11:52;;;;;;;;;;;;;;;19.95;45.54;98509.09;2069188;28;2393;-63
2024/02/10 00:13:00;;;;;;;;;;;;;;;19.95;45.49;98511.22;2071349;28;1578;-63
2024/02/10 00:14:01;;;;;;;;;;;;;;;19.94;45.45;98516.25;2067275;28;2462;-63
2024/02/10 00:15:05;;;;;;;;;;;;;;;19.94;45.47;98516.25;2070134;28;1878;-63
2024/02/10 00:16:06;;;;;;;;;;;;;;;19.94;45.46;98513.38;2069370;28;1673;-63
2024/02/10 00:17:09;;;;;;;;;;;;;;;19.95;45.58;98511.22;2070148;28;1639;-63
2024/02/10 00:18:11;;;;;;;;;;;;;;;19.94;45.55;98522.00;2067693;28;1918;-63
2024/02/10 00:19:12;;;;;;;;;;;;;;;19.94;45.58;98516.25;2069941;28;2256;-63
2024/02/10 00:20:15;;;;;;;;;;;;;;;19.93;45.53;98514.81;2070195;28;2258;-63
2024/02/10 00:21:20;;;;;;;;;;;;;;;19.94;45.52;98515.53;2067309;28;2709;-63
2024/02/10 00:22:22;;;;;;;;;;;;;;;19.94;45.57;98512.66;2074148;28;1804;-63
2024/02/10 00:23:24;;;;;;;;;;;;;;;19.93;45.36;98511.19;2069460;28;2224;-63
2024/02/10 00:24:26;;;;;;;;;;;;;;;19.93;45.65;98502.59;2069685;28;1630;-63
2024/02/10 00:25:28;;;;;;;;;;;;;;;19.93;45.45;98514.81;2066931;28;2361;-63
2024/02/10 00:26:30;;;;;;;;;;;;;;;19.92;45.41;98506.88;2068331;28;2670;-63
2024/02/10 00:27:32;;;;;;;;;;;;;;;19.92;45.49;98513.34;2067331;28;2315;-63
2024/02/10 00:28:34;;;;;;;;;;;;;;;19.92;45.43;98513.34;2067545;28;2618;-63
2024/02/10 00:29:37;;;;;;;;;;;;;;;19.92;45.72;98501.88;2066504;28;2447;-63
2024/02/10 00:30:39;;;;;;;;;;;;;;;19.91;45.45;98514.78;2068431;28;2355;-63
2024/02/10 00:31:44;;;;;;;;;;;;;;;19.90;45.51;98516.19;2071025;28;1623;-63
2024/02/10 00:32:51;;;;;;;;;;;;;;;19.91;45.51;98511.91;2068092;28;2125;-63
2024/02/10 00:33:54;;;;;;;;;;;;;;;19.91;45.46;98511.91;2067493;28;2264;-63
2024/02/10 00:34:56;;;;;;;;;;;;;;;19.91;45.52;98511.19;2070332;28;2187;-63
2024/02/10 00:35:57;;;;;;;;;;;;;;;19.90;45.53;98510.47;2065532;28;2336;-63
2024/02/10 00:36:59;;;;;;;;;;;;;;;19.91;45.63;98511.91;2066128;28;2732;-63
2024/02/10 00:38:00;;;;;;;;;;;;;;;19.91;45.43;98514.06;2067592;28;2284;-63
2024/02/10 00:39:02;;;;;;;;;;;;;;;19.90;45.59;98507.59;2067686;28;2480;-64
2024/02/10 00:40:04;;;;;;;;;;;;;;;19.91;45.47;98506.19;2068251;28;2427;-63
2024/02/10 00:41:06;;;;;;;;;;;;;;;19.90;45.51;98509.75;2065969;28;2347;-63
2024/02/10 00:42:08;;;;;;;;;;;;;;;19.90;45.48;98504.00;2067219;28;2574;-63
2024/02/10 00:43:11;;;;;;;;;;;;;;;19.90;45.49;98504.72;2066509;28;2579;-62
2024/02/10 00:44:12;;;;;;;;;;;;;;;19.89;45.47;98506.16;2067033;28;2432;-63
2024/02/10 00:45:14;;;;;;;;;;;;;;;19.89;45.58;98506.16;2066747;28;2288;-63
2024/02/10 00:46:16;;;;;;;;;;;;;;;19.89;45.50;98511.91;2066747;28;2272;-62
2024/02/10 00:47:17;;;;;;;;;;;;;;;19.89;45.71;98503.28;2065483;28;2351;-62
2024/02/10 00:48:19;;;;;;;;;;;;;;;19.88;45.53;98504.69;2067679;28;2335;-63
2024/02/10 00:49:24;;;;;;;;;;;;;;;19.88;45.47;98507.56;2068113;28;2382;-62
2024/02/10 00:50:25;;;;;;;;;;;;;;;19.90;45.43;98501.13;2066253;28;2335;-63
2024/02/10 00:51:28;;;;;;;;;;;;;;;19.88;45.49;98501.81;2065497;28;2509;-63
2024/02/10 00:52:29;;;;;;;;;;;;;;;19.88;45.37;98501.81;2065443;28;2269;-62
2024/02/10 00:53:32;;;;;;;;;;;;;;;19.88;45.47;98501.81;2070717;28;1701;-63
2024/02/10 00:54:33;;;;;;;;;;;;;;;19.88;45.56;98510.44;2069409;28;1742;-62
2024/02/10 00:55:34;;;;;;;;;;;;;;;19.88;45.35;98504.69;2071444;28;1713;-63
2024/02/10 00:56:37;;;;;;;;;;;;;;;19.87;45.47;98506.84;2070980;28;1744;-63
2024/02/10 00:57:40;;;;;;;;;;;;;;;19.88;45.62;98504.69;2067333;28;1741;-62
2024/02/10 00:58:41;;;;;;;;;;;;;;;19.86;45.40;98511.16;2066179;28;1910;-63
2024/02/10 00:59:44;;;;;;;;;;;;;;;19.87;45.56;98511.88;2066754;28;2463;-62
2024/02/10 01:00:46;;;;;;;;;;;;;;;19.87;45.51;98506.13;2067286;28;2358;-63
2024/02/10 01:01:51;;;;;;;;;;;;;;;19.86;45.56;98505.41;2066763;28;2846;-62
2024/02/10 01:02:54;;;;;;;;;;;;;;;19.86;45.55;98502.53;2067352;28;2300;-62
2024/02/10 01:03:55;;;;;;;;;;;;;;;19.86;45.52;98507.56;2067787;28;2427;-62
2024/02/10 01:04:57;;;;;;;;;;;;;;;19.85;45.44;98497.47;2066375;28;2359;-63
2024/02/10 01:05:58;;;;;;;;;;;;;;;19.86;45.53;98505.41;2066877;28;2312;-62
2024/02/10 01:07:01;;;;;;;;;;;;;;;19.86;45.46;98505.41;2064994;28;2333;-63
2024/02/10 01:08:02;;;;;;;;;;;;;;;19.86;45.48;98508.28;2066369;28;2372;-62
2024/02/10 01:09:04;;;;;;;;;;;;;;;19.86;45.40;98510.44;2069631;28;2421;-63
2024/02/10 01:10:06;;;;;;;;;;;;;;;19.86;45.55;98504.69;2071260;28;2296;-63
2024/02/10 01:11:11;;;;;;;;;;;;;;;19.85;45.38;98506.81;2069936;28;1629;-63
2024/02/10 01:12:13;;;;;;;;;;;;;;;19.87;45.46;98509.00;2069992;28;1918;-62
2024/02/10 01:13:15;;;;;;;;;;;;;;;19.86;45.51;98513.31;2065694;28;2209;-62
2024/02/10 01:14:16;;;;;;;;;;;;;;;19.84;45.48;98502.50;2069059;28;2297;-63
2024/02/10 01:15:17;;;;;;;;;;;;;;;19.85;45.50;98508.97;2066201;28;1689;-63
2024/02/10 01:16:19;;;;;;;;;;;;;;;19.85;45.41;98506.81;2066447;28;1705;-63
2024/02/10 01:17:21;;;;;;;;;;;;;;;19.84;45.48;98511.13;2069700;28;2062;-63
2024/02/10 01:18:22;;;;;;;;;;;;;;;19.84;45.48;98513.28;2070701;28;1985;-63
2024/02/10 01:19:25;;;;;;;;;;;;;;;19.85;45.41;98506.09;2066374;28;2344;-62
2024/02/10 01:20:27;;;;;;;;;;;;;;;19.84;45.51;98501.78;2066405;28;2565;-62
2024/02/10 01:21:28;;;;;;;;;;;;;;;19.84;45.50;98504.66;2067103;28;2348;-62
2024/02/10 01:22:30;;;;;;;;;;;;;;;19.83;45.38;98501.06;2069102;28;2152;-62
2024/02/10 01:23:31;;;;;;;;;;;;;;;19.84;45.39;98513.28;2068926;28;1577;-62
2024/02/10 01:24:35;;;;;;;;;;;;;;;19.84;45.43;98501.78;2070609;28;2745;-63
2024/02/10 01:25:37;;;;;;;;;;;;;;;19.83;45.51;98511.81;2068558;28;2017;-63
2024/02/10 01:26:40;;;;;;;;;;;;;;;19.83;45.55;98506.06;2068428;28;2384;-62
2024/02/10 01:27:44;;;;;;;;;;;;;;;19.82;45.57;98502.50;2067690;28;2446;-62
2024/02/10 01:28:47;;;;;;;;;;;;;;;19.84;45.49;98507.53;2067429;28;2312;-62
2024/02/10 01:29:50;;;;;;;;;;;;;;;19.83;45.38;98508.94;2066275;28;2389;-62
2024/02/10 01:30:52;;;;;;;;;;;;;;;19.82;45.44;98504.63;2064513;28;2399;-62
2024/02/10 01:31:53;;;;;;;;;;;;;;;19.81;45.43;98503.91;2066777;28;2724;-63
2024/02/10 01:32:57;;;;;;;;;;;;;;;19.83;45.31;98508.94;2066661;28;2283;-62
2024/02/10 01:34:00;;;;;;;;;;;;;;;19.82;45.14;98510.38;2068312;28;2704;-63
2024/02/10 01:35:03;;;;;;;;;;;;;;;19.82;45.39;98510.38;2068338;28;2168;-62
2024/02/10 01:36:06;;;;;;;;;;;;;;;19.82;45.46;98510.38;2069259;28;1673;-63
2024/02/10 01:37:08;;;;;;;;;;;;;;;19.82;45.48;98504.63;2071284;28;2167;-63
2024/02/10 01:38:10;;;;;;;;;;;;;;;19.81;45.48;98508.91;2067670;28;1987;-63
2024/02/10 01:39:11;;;;;;;;;;;;;;;19.81;45.39;98503.19;2068900;28;2124;-63
2024/02/10 01:40:12;;;;;;;;;;;;;;;19.81;45.46;98511.78;2068232;28;2205;-62
2024/02/10 01:41:14;;;;;;;;;;;;;;;19.81;45.37;98508.91;2068165;28;2276;-63
2024/02/10 01:42:18;;;;;;;;;;;;;;;19.81;45.43;98506.78;2066501;28;2354;-62
2024/02/10 01:43:19;;;;;;;;;;;;;;;19.81;45.42;98503.19;2066289;28;2685;-62
2024/02/10 01:44:21;;;;;;;;;;;;;;;19.80;45.48;98508.19;2066626;28;2380;-62
2024/02/10 01:45:22;;;;;;;;;;;;;;;19.80;45.50;98501.75;2066373;28;2325;-63
2024/02/10 01:46:25;;;;;;;;;;;;;;;19.80;45.40;98508.19;2066203;28;2417;-62
2024/02/10 01:47:26;;;;;;;;;;;;;;;19.80;45.56;98507.50;2068230;28;2284;-62
2024/02/10 01:48:28;;;;;;;;;;;;;;;19.80;45.38;98510.34;2068870;28;1963;-63
2024/02/10 01:49:29;;;;;;;;;;;;;;;19.79;45.55;98509.63;2069006;28;1993;-63
2024/02/10 01:50:31;;;;;;;;;;;;;;;19.80;45.38;98504.63;2067309;28;2507;-63
2024/02/10 01:51:32;;;;;;;;;;;;;;;19.79;45.38;98511.78;2067321;28;2376;-63
2024/02/10 01:52:34;;;;;;;;;;;;;;;19.79;45.35;98503.91;2066792;28;2415;-63
2024/02/10 01:53:38;;;;;;;;;;;;;;;19.79;45.53;98506.78;2067074;28;2621;-63
2024/02/10 01:54:39;;;;;;;;;;;;;;;19.78;45.40;98504.59;2065583;28;2473;-63
2024/02/10 01:55:42;;;;;;;;;;;;;;;19.78;45.32;98498.84;2067021;28;2431;-62
2024/02/10 01:56:45;;;;;;;;;;;;;;;19.79;45.45;98509.63;2069195;28;2340;-62
2024/02/10 01:57:49;;;;;;;;;;;;;;;19.79;45.51;98506.03;2066808;28;2275;-63
2024/02/10 01:58:50;;;;;;;;;;;;;;;19.80;45.48;98507.50;2069375;28;2359;-63
2024/02/10 01:59:52;;;;;;;;;;;;;;;19.79;45.55;98506.78;2065905;28;2405;-62
2024/02/10 02:00:53;;;;;;;;;;;;;;;19.78;45.52;98505.31;2066684;28;2332;-62
2024/02/10 02:01:55;;;;;;;;;;;;;;;19.78;45.56;98498.84;2068341;28;2445;-62
2024/02/10 02:02:59;;;;;;;;;;;;;;;19.78;45.40;98504.59;2065507;28;2296;-63
2024/02/10 02:04:04;;;;;;;;;;;;;;;19.78;45.58;98493.09;2066798;28;2393;-63
2024/02/10 02:05:06;;;;;;;;;;;;;;;19.78;45.54;98504.59;2065208;28;2269;-62
2024/02/10 02:06:10;;;;;;;;;;;;;;;19.77;45.35;98503.13;2070073;28;2379;-63
2024/02/10 02:07:12;;;;;;;;;;;;;;;19.77;45.41;98501.00;2067662;28;1694;-63
2024/02/10 02:08:14;;;;;;;;;;;;;;;19.77;45.54;98503.13;2067129;28;1896;-63
2024/02/10 02:09:15;;;;;;;;;;;;;;;19.77;45.55;98506.00;2068568;28;1919;-63
2024/02/10 02:10:21;;;;;;;;;;;;;;;19.77;45.49;98503.13;2068160;28;2305;-62
2024/02/10 02:11:23;;;;;;;;;;;;;;;19.76;45.53;98501.69;2069614;28;2226;-63
2024/02/10 02:12:24;;;;;;;;;;;;;;;19.76;45.46;98498.81;2066340;28;2319;-63
2024/02/10 02:13:26;;;;;;;;;;;;;;;19.77;45.52;98503.13;2066615;28;2293;-62
2024/02/10 02:14:27;;;;;;;;;;;;;;;19.76;45.50;98507.44;2065441;28;2768;-62
2024/02/10 02:15:30;;;;;;;;;;;;;;;19.77;45.46;98508.88;2065601;28;2355;-63
2024/02/10 02:16:31;;;;;;;;;;;;;;;19.76;45.53;98501.69;2067543;28;2268;-63
2024/02/10 02:17:37;;;;;;;;;;;;;;;19.76;45.48;98507.44;2067436;28;2395;-63
2024/02/10 02:18:39;;;;;;;;;;;;;;;19.76;45.45;98507.44;2067198;28;2406;-62
2024/02/10 02:19:42;;;;;;;;;;;;;;;19.76;45.50;98511.03;2070140;28;1914;-62
2024/02/10 02:20:48;;;;;;;;;;;;;;;19.76;45.52;98513.19;2068587;28;1761;-62
2024/02/10 02:21:49;;;;;;;;;;;;;;;19.75;45.54;98506.00;2066236;28;2397;-63
2024/02/10 02:22:51;;;;;;;;;;;;;;;19.75;45.41;98500.25;2066439;28;2444;-62
2024/02/10 02:23:53;;;;;;;;;;;;;;;19.74;45.44;98499.50;2065930;28;2319;-63
2024/02/10 02:24:54;;;;;;;;;;;;;;;19.74;45.57;98501.66;2067121;28;2403;-63
2024/02/10 02:25:55;;;;;;;;;;;;;;;19.74;45.54;98505.25;2068345;28;2268;-63
2024/02/10 02:26:57;;;;;;;;;;;;;;;19.75;45.29;98500.25;2068185;28;1847;-62
2024/02/10 02:27:58;;;;;;;;;;;;;;;19.74;45.92;98507.41;2063672;28;1773;-62
2024/02/10 02:29:00;;;;;;;;;;;;;;;19.75;45.45;98508.88;2064373;28;2428;-63
2024/02/10 02:30:01;;;;;;;;;;;;;;;19.75;45.49;98503.13;2065375;28;2537;-62
2024/02/10 02:31:03;;;;;;;;;;;;;;;19.74;45.53;98505.25;2065157;28;2383;-62
2024/02/10 02:32:08;;;;;;;;;;;;;;;19.74;45.41;98505.25;2065964;28;2213;-62
2024/02/10 02:33:13;;;;;;;;;;;;;;;19.74;45.36;98510.28;2070093;28;1702;-62
2024/02/10 02:34:14;;;;;;;;;;;;;;;19.74;45.32;98508.13;2069960;28;1704;-64
2024/02/10 02:35:15;;;;;;;;;;;;;;;19.74;45.53;98504.53;2068238;28;2563;-63
2024/02/10 02:36:18;;;;;;;;;;;;;;;19.74;45.53;98504.53;2067376;28;2510;-63
2024/02/10 02:37:22;;;;;;;;;;;;;;;19.73;45.52;98503.81;2065880;28;2344;-63
2024/02/10 02:38:24;;;;;;;;;;;;;;;19.73;45.42;98503.09;2065443;28;2640;-64
2024/02/10 02:39:25;;;;;;;;;;;;;;;19.73;45.49;98503.09;2068994;28;1915;-64
2024/02/10 02:40:26;;;;;;;;;;;;;;;19.73;45.43;98500.94;2066222;28;1909;-63
2024/02/10 02:44:19;;;;;;;;;;;;;;;19.71;45.55;98500.22;2041230;28;2284;-64
2024/02/10 02:45:20;;;;;;;;;;;;;;;19.72;45.45;98507.38;2037294;28;2484;-64
2024/02/10 02:46:23;;;;;;;;;;;;;;;19.71;45.60;98505.94;2040709;28;2512;-63
2024/02/10 02:47:25;;;;;;;;;;;;;;;19.72;45.54;98507.38;2040831;28;2458;-64
2024/02/10 02:48:27;;;;;;;;;;;;;;;19.71;45.52;98500.22;2032513;29;2266;-64
2024/02/10 02:49:28;;;;;;;;;;;;;;;19.70;45.44;98499.50;2033962;29;2633;-64
2024/02/10 02:50:30;;;;;;;;;;;;;;;19.72;45.52;98507.38;2042433;28;2580;-63
2024/02/10 02:51:32;;;;;;;;;;;;;;;19.71;45.50;98497.34;2040280;28;2384;-63
2024/02/10 02:52:33;;;;;;;;;;;;;;;19.72;45.54;98507.38;2040926;28;2339;-64
2024/02/10 02:53:34;;;;;;;;;;;;;;;19.72;45.50;98507.38;2042175;28;2403;-64
2024/02/10 02:54:36;;;;;;;;;;;;;;;19.70;45.54;98502.34;2043060;28;2379;-64
2024/02/10 02:55:37;;;;;;;;;;;;;;;19.69;45.58;98497.31;2042367;28;2376;-64
2024/02/10 02:56:38;;;;;;;;;;;;;;;19.70;45.53;98498.75;2042220;28;2466;-64
2024/02/10 02:57:40;;;;;;;;;;;;;;;19.69;45.55;98497.31;2045050;29;2443;-63
2024/02/10 02:58:41;;;;;;;;;;;;;;;19.70;45.47;98504.47;2043065;28;2383;-63
2024/02/10 02:59:46;;;;;;;;;;;;;;;19.70;45.49;98504.47;2044115;28;2442;-64
2024/02/10 03:00:47;;;;;;;;;;;;;;;19.69;45.57;98495.16;2043654;28;2431;-63
2024/02/10 03:01:54;;;;;;;;;;;;;;;19.69;45.56;98497.31;2042639;28;2471;-63
2024/02/10 03:03:02;;;;;;;;;;;;;;;19.69;45.57;98497.31;2043350;29;2340;-64
2024/02/10 03:04:04;;;;;;;;;;;;;;;19.68;45.53;98496.56;2044394;28;2390;-64
2024/02/10 03:05:06;;;;;;;;;;;;;;;19.69;45.55;98497.31;2044789;28;2331;-66
2024/02/10 03:06:08;;;;;;;;;;;;;;;19.69;45.52;98503.06;2043566;28;2469;-65
2024/02/10 03:07:11;;;;;;;;;;;;;;;19.69;45.42;98494.44;2043674;28;2354;-65
2024/02/10 03:08:13;;;;;;;;;;;;;;;19.69;45.60;98491.56;2043092;29;2772;-63
2024/02/10 03:09:14;;;;;;;;;;;;;;;19.69;45.47;98497.31;2043062;28;2315;-66
2024/02/10 03:10:15;;;;;;;;;;;;;;;19.69;45.56;98492.28;2043548;29;2372;-66
2024/02/10 03:11:17;;;;;;;;;;;;;;;19.67;45.54;98495.81;2043712;28;2653;-66
2024/02/10 03:12:18;;;;;;;;;;;;;;;19.67;45.47;98495.81;2044697;28;2578;-65
2024/02/10 03:13:20;;;;;;;;;;;;;;;19.67;45.54;98501.56;2053566;28;2432;-66
2024/02/10 03:14:21;;;;;;;;;;;;;;;19.67;45.53;98495.81;2067826;28;2395;-66
2024/02/10 03:15:23;;;;;;;;;;;;;;;19.67;45.57;98495.81;2068828;28;2439;-66
2024/02/10 03:16:25;;;;;;;;;;;;;;;19.66;45.57;98494.38;2068547;28;2289;-65
2024/02/10 03:17:30;;;;;;;;;;;;;;;19.66;45.65;98491.50;2069414;28;2186;-66
2024/02/10 03:18:32;;;;;;;;;;;;;;;19.67;45.58;98495.81;2066087;28;2222;-66
2024/02/10 03:19:36;;;;;;;;;;;;;;;19.67;45.59;98495.81;2068601;28;2360;-66
2024/02/10 03:20:37;;;;;;;;;;;;;;;19.66;45.53;98488.66;2068497;28;2236;-66
2024/02/10 03:21:39;;;;;;;;;;;;;;;19.66;45.58;98494.38;2068315;28;2264;-66
2024/02/10 03:22:40;;;;;;;;;;;;;;;19.65;45.50;98487.22;2068107;28;2230;-66
2024/02/10 03:23:44;;;;;;;;;;;;;;;19.66;45.50;98485.06;2067353;28;2298;-66
2024/02/10 03:24:47;;;;;;;;;;;;;;;19.66;45.52;98488.66;2068818;28;2165;-66
2024/02/10 03:25:49;;;;;;;;;;;;;;;19.66;45.57;98485.78;2068340;28;2209;-67
2024/02/10 03:26:51;;;;;;;;;;;;;;;19.65;45.62;98487.22;2069054;28;2290;-67
2024/02/10 03:27:52;;;;;;;;;;;;;;;19.64;45.56;98491.47;2066705;28;2251;-66
2024/02/10 03:28:54;;;;;;;;;;;;;;;19.65;45.52;98492.94;2068456;28;2207;-66
2024/02/10 03:29:56;;;;;;;;;;;;;;;19.64;45.51;98491.47;2069218;28;2214;-66
2024/02/10 03:30:57;;;;;;;;;;;;;;;19.65;45.60;98487.22;2068623;28;2189;-66
2024/02/10 03:32:01;;;;;;;;;;;;;;;19.64;45.50;98488.63;2066269;28;2311;-66
2024/02/10 03:33:02;;;;;;;;;;;;;;;19.64;45.42;98491.47;2069207;28;2154;-66
2024/02/10 03:34:04;;;;;;;;;;;;;;;19.64;45.58;98491.47;2066519;28;2213;-65
2024/02/10 03:35:06;;;;;;;;;;;;;;;19.64;45.62;98491.47;2066873;28;2169;-66
2024/02/10 03:36:07;;;;;;;;;;;;;;;19.64;45.51;98494.34;2068062;28;2204;-66
2024/02/10 03:37:10;;;;;;;;;;;;;;;19.64;45.48;98485.75;2067336;28;2197;-66
2024/02/10 03:38:11;;;;;;;;;;;;;;;19.64;45.59;98491.47;2067289;28;2282;-66
2024/02/10 03:39:13;;;;;;;;;;;;;;;19.64;45.59;98491.47;2068240;28;2558;-66
2024/02/10 03:40:18;;;;;;;;;;;;;;;19.64;45.53;98485.75;2068493;28;2498;-66
2024/02/10 03:41:20;;;;;;;;;;;;;;;19.66;45.50;98488.66;2068839;28;2257;-66
2024/02/10 03:42:21;;;;;;;;;;;;;;;19.67;45.48;98495.09;2065689;28;2247;-66
2024/02/10 03:43:25;;;;;;;;;;;;;;;19.68;45.40;98493.69;2068871;28;2263;-66
2024/02/10 03:44:26;;;;;;;;;;;;;;;19.68;45.46;98496.56;2067646;28;2234;-66
2024/02/10 03:45:37;;;;;;;;;;;;;;;19.69;45.41;98491.56;2068759;28;2201;-66
2024/02/10 03:46:39;;;;;;;;;;;;;;;19.70;45.28;98498.75;2069067;28;2551;-66
2024/02/10 03:47:42;;;;;;;;;;;;;;;19.71;45.39;98491.59;2067587;28;2276;-66
2024/02/10 03:48:46;;;;;;;;;;;;;;;19.72;45.33;98495.91;2069107;28;2334;-66
2024/02/10 03:49:48;;;;;;;;;;;;;;;19.73;45.24;98491.63;2066520;28;2217;-66
2024/02/10 03:50:49;;;;;;;;;;;;;;;19.74;45.35;98490.19;2069036;28;2230;-66
2024/02/10 03:51:51;;;;;;;;;;;;;;;19.74;45.27;98490.91;2067856;28;2252;-66
2024/02/10 03:52:52;;;;;;;;;;;;;;;19.75;45.41;98488.78;2069174;28;2213;-66
2024/02/10 03:53:55;;;;;;;;;;;;;;;19.75;45.28;98491.66;2069361;28;2304;-66
2024/02/10 03:54:58;;;;;;;;;;;;;;;19.75;45.45;98489.50;2068877;28;2186;-66
2024/02/10 03:56:00;;;;;;;;;;;;;;;19.75;45.38;98488.78;2068122;28;2162;-66
2024/02/10 03:57:03;;;;;;;;;;;;;;;19.75;45.35;98483.03;2066965;28;2265;-66
2024/02/10 03:58:05;;;;;;;;;;;;;;;19.75;45.34;98500.25;2068049;28;2244;-66
2024/02/10 03:59:07;;;;;;;;;;;;;;;19.75;45.36;98494.50;2068363;28;2289;-66
2024/02/10 04:00:10;;;;;;;;;;;;;;;19.75;45.33;98491.66;2067766;28;2174;-66
2024/02/10 04:01:13;;;;;;;;;;;;;;;19.74;45.25;98487.31;2068363;28;2623;-66
2024/02/10 04:02:18;;;;;;;;;;;;;;;19.75;45.45;98497.38;2066270;28;2313;-65
2024/02/10 04:03:21;;;;;;;;;;;;;;;19.74;45.35;98487.31;2067930;28;2218;-65
2024/02/10 04:04:22;;;;;;;;;;;;;;;19.74;45.32;98488.03;2068750;28;2150;-67
2024/02/10 04:05:33;;;;;;;;;;;;;;;19.75;45.41;98489.50;2066388;28;2284;-66
2024/02/10 04:06:34;;;;;;;;;;;;;;;19.76;45.44;98490.94;2066729;28;2590;-66
2024/02/10 04:07:36;;;;;;;;;;;;;;;19.76;45.37;98495.94;2067910;28;1943;-66
2024/02/10 04:08:37;;;;;;;;;;;;;;;19.76;45.35;98493.78;2067345;28;2561;-66
2024/02/10 04:09:40;;;;;;;;;;;;;;;19.77;45.32;98488.78;2069172;28;2277;-66
2024/02/10 04:10:41;;;;;;;;;;;;;;;19.77;45.57;98494.50;2067015;28;2463;-66
2024/02/10 04:11:43;;;;;;;;;;;;;;;19.77;45.41;98485.91;2067305;28;2419;-66
2024/02/10 04:12:46;;;;;;;;;;;;;;;19.77;45.52;98492.38;2067757;28;2359;-66
2024/02/10 04:13:48;;;;;;;;;;;;;;;19.78;45.42;98487.38;2067417;28;2335;-66
2024/02/10 04:14:49;;;;;;;;;;;;;;;19.78;45.44;98482.34;2068733;28;2413;-65
2024/02/10 04:15:50;;;;;;;;;;;;;;;19.79;45.53;98494.53;2068086;28;2182;-65
2024/02/10 04:16:52;;;;;;;;;;;;;;;19.79;45.43;98483.06;2068081;28;2216;-66
2024/02/10 04:17:55;;;;;;;;;;;;;;;19.80;45.38;98484.50;2067299;28;2222;-66
2024/02/10 04:18:59;;;;;;;;;;;;;;;19.81;45.45;98488.81;2067023;28;2197;-66
2024/02/10 04:20:01;;;;;;;;;;;;;;;19.80;45.67;98490.97;2067255;28;2281;-66
2024/02/10 04:21:04;;;;;;;;;;;;;;;19.80;45.46;98479.50;2068257;28;2241;-66
2024/02/10 04:22:06;;;;;;;;;;;;;;;19.81;45.76;98483.06;2066672;28;2214;-65
2024/02/10 04:23:11;;;;;;;;;;;;;;;19.81;45.64;98483.06;2068523;28;2261;-66
2024/02/10 04:24:17;;;;;;;;;;;;;;;19.82;45.56;98481.66;2068066;28;2201;-65
2024/02/10 04:25:18;;;;;;;;;;;;;;;19.82;45.58;98481.66;2065471;28;2230;-66
2024/02/10 04:26:20;;;;;;;;;;;;;;;19.81;45.52;98469.47;2066669;28;2214;-66
2024/02/10 04:27:21;;;;;;;;;;;;;;;19.82;45.66;98478.78;2070447;28;2374;-66
2024/02/10 04:28:23;;;;;;;;;;;;;;;19.82;45.42;98475.94;2070254;28;1753;-66
2024/02/10 04:29:24;;;;;;;;;;;;;;;19.81;45.58;98480.94;2068194;28;1765;-66
2024/02/10 04:30:26;;;;;;;;;;;;;;;19.81;45.69;98477.34;2066710;28;2179;-66
2024/02/10 04:31:29;;;;;;;;;;;;;;;19.82;45.73;98476.63;2067405;28;2292;-66
2024/02/10 04:32:31;;;;;;;;;;;;;;;19.82;45.88;98473.06;2068346;28;2306;-66
2024/02/10 04:33:32;;;;;;;;;;;;;;;19.82;45.72;98482.38;2068274;28;2244;-66
2024/02/10 04:34:34;;;;;;;;;;;;;;;19.81;45.73;98474.47;2067486;28;2209;-66
2024/02/10 04:35:35;;;;;;;;;;;;;;;19.80;45.58;98473.75;2068448;28;2130;-65
2024/02/10 04:36:38;;;;;;;;;;;;;;;19.80;45.71;98476.63;2070411;28;2225;-66
2024/02/10 04:37:47;;;;;;;;;;;;;;;19.80;45.70;98470.88;2067769;28;2261;-66
2024/02/10 04:38:49;;;;;;;;;;;;;;;19.81;45.74;98466.59;2069155;28;2170;-66
2024/02/10 04:39:50;;;;;;;;;;;;;;;19.81;45.64;98477.34;2068903;28;2420;-66
2024/02/10 04:40:51;;;;;;;;;;;;;;;19.81;45.75;98474.47;2067311;28;2289;-66
2024/02/10 04:41:53;;;;;;;;;;;;;;;19.81;45.70;98474.47;2067663;28;2218;-66
2024/02/10 04:42:55;;;;;;;;;;;;;;;19.81;45.70;98469.47;2066150;28;2180;-66
2024/02/10 04:43:56;;;;;;;;;;;;;;;19.81;45.52;98485.94;2067611;28;2249;-66
2024/02/10 04:44:58;;;;;;;;;;;;;;;19.82;45.47;98467.31;2067887;28;2476;-66
2024/02/10 04:46:00;;;;;;;;;;;;;;;19.82;45.64;98467.31;2067759;28;2205;-66
2024/02/10 04:47:01;;;;;;;;;;;;;;;19.83;45.55;98474.50;2067345;28;2218;-66
2024/02/10 04:48:04;;;;;;;;;;;;;;;19.82;45.63;98470.19;2068051;28;2148;-66
2024/02/10 04:49:06;;;;;;;;;;;;;;;19.83;45.53;98469.47;2066996;28;2241;-66
2024/02/10 04:50:08;;;;;;;;;;;;;;;19.84;45.64;98473.06;2066348;28;2224;-66
2024/02/10 04:51:09;;;;;;;;;;;;;;;19.85;45.75;98474.50;2068337;28;2245;-66
2024/02/10 04:52:10;;;;;;;;;;;;;;;19.85;45.78;98472.34;2068832;28;2182;-66
2024/02/10 04:53:14;;;;;;;;;;;;;;;19.85;45.75;98474.50;2064205;28;2473;-66
2024/02/10 04:54:16;;;;;;;;;;;;;;;19.86;45.78;98475.97;2066525;28;2230;-65
2024/02/10 04:55:20;;;;;;;;;;;;;;;19.85;45.74;98472.34;2068351;28;2225;-66
2024/02/10 04:56:27;;;;;;;;;;;;;;;19.85;45.67;98474.50;2067257;28;2709;-66
2024/02/10 04:57:30;;;;;;;;;;;;;;;19.86;45.86;98464.50;2067734;28;2194;-66
2024/02/10 04:58:31;;;;;;;;;;;;;;;19.87;45.77;98471.66;2068026;28;2574;-66
2024/02/10 04:59:33;;;;;;;;;;;;;;;19.86;45.89;98470.94;2067215;28;2294;-66
2024/02/10 05:00:34;;;;;;;;;;;;;;;19.86;45.77;98470.94;2067119;28;2229;-66
2024/02/10 05:01:36;;;;;;;;;;;;;;;19.86;45.75;98464.50;2067567;28;2377;-66
2024/02/10 05:02:37;;;;;;;;;;;;;;;19.88;45.84;98473.09;2066224;28;2541;-66
2024/02/10 05:03:42;;;;;;;;;;;;;;;19.88;45.68;98470.22;2067005;28;2190;-67
2024/02/10 05:04:43;;;;;;;;;;;;;;;19.87;45.75;98466.63;2066642;28;2265;-66
2024/02/10 05:05:45;;;;;;;;;;;;;;;19.86;45.83;98467.34;2067207;28;2289;-66
2024/02/10 05:06:46;;;;;;;;;;;;;;;19.87;45.67;98463.03;2068299;28;2191;-66
2024/02/10 05:07:48;;;;;;;;;;;;;;;19.87;45.71;98465.91;2066219;28;2209;-66
2024/02/10 05:08:50;;;;;;;;;;;;;;;19.86;45.64;98473.09;2067835;28;2280;-65
2024/02/10 05:09:51;;;;;;;;;;;;;;;19.86;45.74;98467.34;2067571;28;2199;-65
2024/02/10 05:10:52;;;;;;;;;;;;;;;19.86;45.54;98470.22;2066845;28;2214;-66
2024/02/10 05:11:54;;;;;;;;;;;;;;;19.87;45.64;98471.66;2066695;28;2211;-65
2024/02/10 05:12:55;;;;;;;;;;;;;;;19.86;45.77;98470.22;2067220;28;2180;-66
2024/02/10 05:13:57;;;;;;;;;;;;;;;19.86;45.71;98473.09;2067966;28;2284;-65
2024/02/10 05:14:59;;;;;;;;;;;;;;;19.86;45.79;98475.97;2068747;28;2215;-66
2024/02/10 05:16:00;;;;;;;;;;;;;;;19.86;45.66;98470.22;2067303;28;2272;-65
2024/02/10 05:17:02;;;;;;;;;;;;;;;19.85;45.64;98471.63;2067012;28;2150;-65
2024/02/10 05:18:04;;;;;;;;;;;;;;;19.84;45.79;98468.06;2065854;28;2224;-65
2024/02/10 05:19:06;;;;;;;;;;;;;;;19.84;45.89;98473.78;2067569;28;2297;-65
2024/02/10 05:20:43;;;;;;;;;;;;;;;19.86;45.68;98461.63;2067588;28;2241;-66
2024/02/10 05:21:37;;;;;;;;;;;;;;;19.87;45.64;98471.66;2067055;28;2349;-65
2024/02/10 05:22:42;;;;;;;;;;;;;;;19.86;45.68;98470.22;2068037;28;2297;-66
2024/02/10 05:23:49;;;;;;;;;;;;;;;19.87;45.76;98468.78;2066916;28;2320;-66
2024/02/10 05:24:50;;;;;;;;;;;;;;;19.87;45.88;98471.66;2067223;28;2265;-65
2024/02/10 05:25:53;;;;;;;;;;;;;;;19.85;45.64;98466.63;2067054;28;2178;-66
2024/02/10 05:26:55;;;;;;;;;;;;;;;19.87;45.86;98471.66;2068465;28;2193;-66
2024/02/10 05:28:00;;;;;;;;;;;;;;;19.87;45.88;98471.66;2066658;28;2432;-66
2024/02/10 05:29:06;;;;;;;;;;;;;;;19.88;45.90;98467.34;2067497;28;2233;-66
2024/02/10 05:30:14;;;;;;;;;;;;;;;19.89;45.91;98468.81;2067651;28;2275;-65
2024/02/10 05:31:15;;;;;;;;;;;;;;;19.90;45.65;98469.53;2066283;28;2543;-65
2024/02/10 05:32:17;;;;;;;;;;;;;;;19.89;45.71;98468.81;2068228;28;2162;-66